sensor_id;sensor_type;location;lat;lon;timestamp;temperature;humidity
3186;DHT22;1604;53.700;10.252;2022-08-19T00:00:54;19.10;99.90
3186;DHT22;1604;53.700;10.252;2022-08-19T00:03:56;19.10;99.90
3186;DHT22;1604;53.700;10.252;2022-08-19T00:07:00;19.10;99.90
3186;DHT22;1604;53.700;10.252;2022-08-19T00:10:03;19.10;99.90
3186;DHT22;1604;53.700;10.252;2022-08-19T00:13:05;19.10;99.90
3186;DHT22;1604;53.700;10.252;2022-08-19T00:16:07;19.10;99.90
3186;DHT22;1604;53.700;10.252;2022-08-19T00:19:09;19.10;99.90
3186;DHT22;1604;53.700;10.252;2022-08-19T00:22:12;19.10;99.90
3186;DHT22;1604;53.700;10.252;2022-08-19T00:25:15;19.10;99.90
3186;DHT22;1604;53.700;10.252;2022-08-19T00:28:17;19.10;99.90
3186;DHT22;1604;53.700;10.252;2022-08-19T00:31:21;19.10;99.90
3186;DHT22;1604;53.700;10.252;2022-08-19T00:34:23;19.10;99.90
3186;DHT22;1604;53.700;10.252;2022-08-19T00:37:29;19.10;99.90
3186;DHT22;1604;53.700;10.252;2022-08-19T00:40:31;19.10;99.90
3186;DHT22;1604;53.700;10.252;2022-08-19T00:43:33;19.10;99.90
3186;DHT22;1604;53.700;10.252;2022-08-19T00:46:38;19.10;99.90
3186;DHT22;1604;53.700;10.252;2022-08-19T00:49:43;19.10;99.90
3186;DHT22;1604;53.700;10.252;2022-08-19T00:52:52;19.10;99.90
3186;DHT22;1604;53.700;10.252;2022-08-19T00:55:58;19.10;99.90
3186;DHT22;1604;53.700;10.252;2022-08-19T00:59:01;19.10;99.90
3186;DHT22;1604;53.700;10.252;2022-08-19T01:02:04;19.10;99.90
3186;DHT22;1604;53.700;10.252;2022-08-19T01:05:09;19.10;99.90
3186;DHT22;1604;53.700;10.252;2022-08-19T01:08:15;19.00;99.90
3186;DHT22;1604;53.700;10.252;2022-08-19T01:11:17;19.00;99.90
3186;DHT22;1604;53.700;10.252;2022-08-19T01:14:19;19.00;99.90
3186;DHT22;1604;53.700;10.252;2022-08-19T01:17:21;19.00;99.90
3186;DHT22;1604;53.700;10.252;2022-08-19T01:20:24;19.00;99.90
3186;DHT22;1604;53.700;10.252;2022-08-19T01:23:27;19.00;99.90
3186;DHT22;1604;53.700;10.252;2022-08-19T01:26:44;19.00;99.90
3186;DHT22;1604;53.700;10.252;2022-08-19T01:29:46;19.00;99.90
3186;DHT22;1604;53.700;10.252;2022-08-19T01:32:49;18.90;99.90
3186;DHT22;1604;53.700;10.252;2022-08-19T01:35:51;18.90;99.90
3186;DHT22;1604;53.700;10.252;2022-08-19T01:38:55;18.90;99.90
3186;DHT22;1604;53.700;10.252;2022-08-19T01:41:58;18.90;99.90
3186;DHT22;1604;53.700;10.252;2022-08-19T01:45:04;19.00;99.90
3186;DHT22;1604;53.700;10.252;2022-08-19T01:48:08;18.90;99.90
3186;DHT22;1604;53.700;10.252;2022-08-19T01:51:11;18.90;99.90
3186;DHT22;1604;53.700;10.252;2022-08-19T01:54:16;18.90;99.90
3186;DHT22;1604;53.700;10.252;2022-08-19T01:57:18;18.90;99.90
3186;DHT22;1604;53.700;10.252;2022-08-19T02:00:22;18.90;99.90
3186;DHT22;1604;53.700;10.252;2022-08-19T02:03:31;18.90;99.90
3186;DHT22;1604;53.700;10.252;2022-08-19T02:06:35;18.90;99.90
3186;DHT22;1604;53.700;10.252;2022-08-19T02:09:38;18.90;99.90
3186;DHT22;1604;53.700;10.252;2022-08-19T02:12:40;18.90;99.90
3186;DHT22;1604;53.700;10.252;2022-08-19T02:15:43;18.90;99.90
3186;DHT22;1604;53.700;10.252;2022-08-19T02:18:46;18.90;99.90
3186;DHT22;1604;53.700;10.252;2022-08-19T02:21:48;18.90;99.90
3186;DHT22;1604;53.700;10.252;2022-08-19T02:24:52;18.90;99.90
3186;DHT22;1604;53.700;10.252;2022-08-19T02:27:54;18.90;99.90
3186;DHT22;1604;53.700;10.252;2022-08-19T02:30:55;18.90;99.90
3186;DHT22;1604;53.700;10.252;2022-08-19T02:33:57;18.90;99.90
3186;DHT22;1604;53.700;10.252;2022-08-19T02:37:00;18.90;99.90
3186;DHT22;1604;53.700;10.252;2022-08-19T02:40:04;18.90;99.90
3186;DHT22;1604;53.700;10.252;2022-08-19T02:43:07;18.90;99.90
3186;DHT22;1604;53.700;10.252;2022-08-19T02:46:15;18.90;99.90
3186;DHT22;1604;53.700;10.252;2022-08-19T02:49:21;18.90;99.90
3186;DHT22;1604;53.700;10.252;2022-08-19T02:52:23;18.90;99.90
3186;DHT22;1604;53.700;10.252;2022-08-19T02:55:27;18.80;99.90
3186;DHT22;1604;53.700;10.252;2022-08-19T02:58:29;18.80;99.90
3186;DHT22;1604;53.700;10.252;2022-08-19T03:01:32;18.80;99.90
3186;DHT22;1604;53.700;10.252;2022-08-19T03:04:34;18.80;99.90
3186;DHT22;1604;53.700;10.252;2022-08-19T03:07:36;18.80;99.90
3186;DHT22;1604;53.700;10.252;2022-08-19T03:10:45;18.80;99.90
3186;DHT22;1604;53.700;10.252;2022-08-19T03:13:48;18.70;99.90
3186;DHT22;1604;53.700;10.252;2022-08-19T03:16:52;18.70;99.90
3186;DHT22;1604;53.700;10.252;2022-08-19T03:19:54;18.70;99.90
3186;DHT22;1604;53.700;10.252;2022-08-19T03:22:56;18.70;99.90
3186;DHT22;1604;53.700;10.252;2022-08-19T03:26:02;18.70;99.90
3186;DHT22;1604;53.700;10.252;2022-08-19T03:29:05;18.70;99.90
3186;DHT22;1604;53.700;10.252;2022-08-19T03:32:09;18.70;99.90
3186;DHT22;1604;53.700;10.252;2022-08-19T03:35:11;18.70;99.90
3186;DHT22;1604;53.700;10.252;2022-08-19T03:38:12;18.70;99.90
3186;DHT22;1604;53.700;10.252;2022-08-19T03:41:18;18.60;99.90
3186;DHT22;1604;53.700;10.252;2022-08-19T03:44:21;18.60;99.90
3186;DHT22;1604;53.700;10.252;2022-08-19T03:47:24;18.60;99.90
3186;DHT22;1604;53.700;10.252;2022-08-19T03:50:26;18.60;99.90
3186;DHT22;1604;53.700;10.252;2022-08-19T03:53:28;18.60;99.90
3186;DHT22;1604;53.700;10.252;2022-08-19T03:56:33;18.60;99.90
3186;DHT22;1604;53.700;10.252;2022-08-19T03:59:37;18.60;99.90
3186;DHT22;1604;53.700;10.252;2022-08-19T04:02:39;18.60;99.90
3186;DHT22;1604;53.700;10.252;2022-08-19T04:05:41;18.60;99.90
3186;DHT22;1604;53.700;10.252;2022-08-19T04:08:44;18.60;99.90
3186;DHT22;1604;53.700;10.252;2022-08-19T04:11:51;18.60;99.90
3186;DHT22;1604;53.700;10.252;2022-08-19T04:14:54;18.50;99.90
3186;DHT22;1604;53.700;10.252;2022-08-19T04:17:56;18.50;99.90
3186;DHT22;1604;53.700;10.252;2022-08-19T04:20:58;18.60;99.90
3186;DHT22;1604;53.700;10.252;2022-08-19T04:24:09;18.50;99.90
3186;DHT22;1604;53.700;10.252;2022-08-19T04:27:12;18.50;99.90
3186;DHT22;1604;53.700;10.252;2022-08-19T04:30:15;18.50;99.90
3186;DHT22;1604;53.700;10.252;2022-08-19T04:33:20;18.60;99.90
3186;DHT22;1604;53.700;10.252;2022-08-19T04:36:24;18.60;99.90
3186;DHT22;1604;53.700;10.252;2022-08-19T04:39:30;18.60;99.90
3186;DHT22;1604;53.700;10.252;2022-08-19T04:42:47;18.50;99.90
3186;DHT22;1604;53.700;10.252;2022-08-19T04:45:49;18.60;99.90
3186;DHT22;1604;53.700;10.252;2022-08-19T04:48:59;18.60;99.90
3186;DHT22;1604;53.700;10.252;2022-08-19T04:52:08;18.60;99.90
3186;DHT22;1604;53.700;10.252;2022-08-19T04:55:13;18.60;99.90
3186;DHT22;1604;53.700;10.252;2022-08-19T04:58:16;18.60;99.90
3186;DHT22;1604;53.700;10.252;2022-08-19T05:01:19;18.60;99.90
3186;DHT22;1604;53.700;10.252;2022-08-19T05:04:22;18.60;99.90
3186;DHT22;1604;53.700;10.252;2022-08-19T05:07:23;18.60;99.90
3186;DHT22;1604;53.700;10.252;2022-08-19T05:10:25;18.60;99.90
3186;DHT22;1604;53.700;10.252;2022-08-19T05:13:29;18.60;99.90
3186;DHT22;1604;53.700;10.252;2022-08-19T05:16:32;18.60;99.90
3186;DHT22;1604;53.700;10.252;2022-08-19T05:19:33;18.60;99.90
3186;DHT22;1604;53.700;10.252;2022-08-19T05:22:53;18.60;99.90
3186;DHT22;1604;53.700;10.252;2022-08-19T05:25:55;18.70;99.90
3186;DHT22;1604;53.700;10.252;2022-08-19T05:28:58;18.70;99.90
3186;DHT22;1604;53.700;10.252;2022-08-19T05:32:01;18.70;99.90
3186;DHT22;1604;53.700;10.252;2022-08-19T05:35:04;18.70;99.90
3186;DHT22;1604;53.700;10.252;2022-08-19T05:38:06;18.70;99.90
3186;DHT22;1604;53.700;10.252;2022-08-19T05:41:12;18.70;99.90
3186;DHT22;1604;53.700;10.252;2022-08-19T05:44:16;18.70;99.90
3186;DHT22;1604;53.700;10.252;2022-08-19T05:47:19;18.70;99.90
3186;DHT22;1604;53.700;10.252;2022-08-19T05:50:21;18.70;99.90
3186;DHT22;1604;53.700;10.252;2022-08-19T05:53:23;18.70;99.90
3186;DHT22;1604;53.700;10.252;2022-08-19T05:56:25;18.80;99.90
3186;DHT22;1604;53.700;10.252;2022-08-19T05:59:28;18.80;99.90
3186;DHT22;1604;53.700;10.252;2022-08-19T06:02:30;18.80;99.90
3186;DHT22;1604;53.700;10.252;2022-08-19T06:05:33;18.80;99.90
3186;DHT22;1604;53.700;10.252;2022-08-19T06:08:36;18.80;99.90
3186;DHT22;1604;53.700;10.252;2022-08-19T06:11:40;18.80;99.90
3186;DHT22;1604;53.700;10.252;2022-08-19T06:14:45;18.80;99.90
3186;DHT22;1604;53.700;10.252;2022-08-19T06:17:47;18.80;99.90
3186;DHT22;1604;53.700;10.252;2022-08-19T06:20:49;18.80;99.90
3186;DHT22;1604;53.700;10.252;2022-08-19T06:23:51;18.80;99.90
3186;DHT22;1604;53.700;10.252;2022-08-19T06:26:56;18.80;99.90
3186;DHT22;1604;53.700;10.252;2022-08-19T06:29:59;18.90;99.90
3186;DHT22;1604;53.700;10.252;2022-08-19T06:33:01;18.90;99.90
3186;DHT22;1604;53.700;10.252;2022-08-19T06:36:04;18.90;99.90
3186;DHT22;1604;53.700;10.252;2022-08-19T06:39:08;18.90;99.90
3186;DHT22;1604;53.700;10.252;2022-08-19T06:42:11;18.90;99.90
3186;DHT22;1604;53.700;10.252;2022-08-19T06:45:18;18.90;99.90
3186;DHT22;1604;53.700;10.252;2022-08-19T06:48:20;18.90;99.90
3186;DHT22;1604;53.700;10.252;2022-08-19T06:51:23;18.90;99.90
3186;DHT22;1604;53.700;10.252;2022-08-19T06:54:26;18.90;99.90
3186;DHT22;1604;53.700;10.252;2022-08-19T06:57:28;18.90;99.90
3186;DHT22;1604;53.700;10.252;2022-08-19T07:00:34;18.90;99.90
3186;DHT22;1604;53.700;10.252;2022-08-19T07:03:37;19.00;99.90
3186;DHT22;1604;53.700;10.252;2022-08-19T07:06:40;19.00;99.90
3186;DHT22;1604;53.700;10.252;2022-08-19T07:09:43;19.00;99.90
3186;DHT22;1604;53.700;10.252;2022-08-19T07:12:45;19.00;99.90
3186;DHT22;1604;53.700;10.252;2022-08-19T07:15:50;19.00;99.90
3186;DHT22;1604;53.700;10.252;2022-08-19T07:18:51;19.00;99.90
3186;DHT22;1604;53.700;10.252;2022-08-19T07:21:54;19.00;99.90
3186;DHT22;1604;53.700;10.252;2022-08-19T07:24:56;19.00;99.90
3186;DHT22;1604;53.700;10.252;2022-08-19T07:27:58;19.10;99.90
3186;DHT22;1604;53.700;10.252;2022-08-19T07:31:01;19.10;99.90
3186;DHT22;1604;53.700;10.252;2022-08-19T07:34:06;19.10;99.90
3186;DHT22;1604;53.700;10.252;2022-08-19T07:37:08;19.10;99.90
3186;DHT22;1604;53.700;10.252;2022-08-19T07:40:10;19.20;99.90
3186;DHT22;1604;53.700;10.252;2022-08-19T07:43:12;19.30;99.90
3186;DHT22;1604;53.700;10.252;2022-08-19T07:46:17;19.30;99.90
3186;DHT22;1604;53.700;10.252;2022-08-19T07:49:21;19.40;99.80
3186;DHT22;1604;53.700;10.252;2022-08-19T07:52:23;19.50;99.80
3186;DHT22;1604;53.700;10.252;2022-08-19T07:55:26;19.50;99.70
3186;DHT22;1604;53.700;10.252;2022-08-19T07:58:28;19.50;99.60
3186;DHT22;1604;53.700;10.252;2022-08-19T08:01:31;19.60;99.50
3186;DHT22;1604;53.700;10.252;2022-08-19T08:04:33;19.60;99.50
3186;DHT22;1604;53.700;10.252;2022-08-19T08:07:53;19.60;99.50
3186;DHT22;1604;53.700;10.252;2022-08-19T08:11:13;19.60;99.50
3186;DHT22;1604;53.700;10.252;2022-08-19T08:14:18;19.60;99.50
3186;DHT22;1604;53.700;10.252;2022-08-19T08:17:23;19.60;99.50
3186;DHT22;1604;53.700;10.252;2022-08-19T08:20:25;19.70;99.50
3186;DHT22;1604;53.700;10.252;2022-08-19T08:23:27;19.70;99.50
3186;DHT22;1604;53.700;10.252;2022-08-19T08:26:30;19.70;99.50
3186;DHT22;1604;53.700;10.252;2022-08-19T08:29:32;19.70;99.50
3186;DHT22;1604;53.700;10.252;2022-08-19T08:32:40;19.70;99.50
3186;DHT22;1604;53.700;10.252;2022-08-19T08:35:42;19.70;99.50
3186;DHT22;1604;53.700;10.252;2022-08-19T08:38:48;19.70;99.50
3186;DHT22;1604;53.700;10.252;2022-08-19T08:42:05;19.70;99.30
3186;DHT22;1604;53.700;10.252;2022-08-19T08:45:13;19.70;99.40
3186;DHT22;1604;53.700;10.252;2022-08-19T08:48:20;19.70;99.40
3186;DHT22;1604;53.700;10.252;2022-08-19T08:51:28;19.70;99.40
3186;DHT22;1604;53.700;10.252;2022-08-19T08:54:35;19.80;99.40
3186;DHT22;1604;53.700;10.252;2022-08-19T08:57:49;19.80;99.40
3186;DHT22;1604;53.700;10.252;2022-08-19T09:00:54;19.90;99.40
3186;DHT22;1604;53.700;10.252;2022-08-19T09:03:58;19.90;99.30
3186;DHT22;1604;53.700;10.252;2022-08-19T09:07:13;20.00;99.30
3186;DHT22;1604;53.700;10.252;2022-08-19T09:10:24;20.00;99.30
3186;DHT22;1604;53.700;10.252;2022-08-19T09:13:33;20.10;99.30
3186;DHT22;1604;53.700;10.252;2022-08-19T09:16:39;20.10;99.20
3186;DHT22;1604;53.700;10.252;2022-08-19T09:19:52;20.20;99.20
3186;DHT22;1604;53.700;10.252;2022-08-19T09:22:54;20.20;99.10
3186;DHT22;1604;53.700;10.252;2022-08-19T09:25:56;20.20;99.00
3186;DHT22;1604;53.700;10.252;2022-08-19T09:28:58;20.30;99.10
3186;DHT22;1604;53.700;10.252;2022-08-19T09:32:01;20.30;99.00
3186;DHT22;1604;53.700;10.252;2022-08-19T09:35:05;20.30;99.00
3186;DHT22;1604;53.700;10.252;2022-08-19T09:38:07;20.30;99.00
3186;DHT22;1604;53.700;10.252;2022-08-19T09:41:12;20.30;99.00
3186;DHT22;1604;53.700;10.252;2022-08-19T09:44:14;20.30;99.00
3186;DHT22;1604;53.700;10.252;2022-08-19T09:47:16;20.30;99.10
3186;DHT22;1604;53.700;10.252;2022-08-19T09:50:20;20.30;99.10
3186;DHT22;1604;53.700;10.252;2022-08-19T09:53:25;20.30;99.10
3186;DHT22;1604;53.700;10.252;2022-08-19T09:56:29;20.30;99.00
3186;DHT22;1604;53.700;10.252;2022-08-19T09:59:31;20.30;99.00
3186;DHT22;1604;53.700;10.252;2022-08-19T10:02:33;20.30;99.00
3186;DHT22;1604;53.700;10.252;2022-08-19T10:05:36;20.30;99.00
3186;DHT22;1604;53.700;10.252;2022-08-19T10:08:50;20.30;99.00
3186;DHT22;1604;53.700;10.252;2022-08-19T10:11:52;20.30;99.10
3186;DHT22;1604;53.700;10.252;2022-08-19T10:14:54;20.30;99.00
3186;DHT22;1604;53.700;10.252;2022-08-19T10:17:56;20.40;99.10
3186;DHT22;1604;53.700;10.252;2022-08-19T10:21:07;20.40;99.10
3186;DHT22;1604;53.700;10.252;2022-08-19T10:24:09;20.40;99.00
3186;DHT22;1604;53.700;10.252;2022-08-19T10:27:11;20.40;99.00
3186;DHT22;1604;53.700;10.252;2022-08-19T10:30:14;20.40;99.00
3186;DHT22;1604;53.700;10.252;2022-08-19T10:33:16;20.40;99.00
3186;DHT22;1604;53.700;10.252;2022-08-19T10:36:21;20.40;99.00
3186;DHT22;1604;53.700;10.252;2022-08-19T10:39:24;20.40;99.00
3186;DHT22;1604;53.700;10.252;2022-08-19T10:42:28;20.40;99.10
3186;DHT22;1604;53.700;10.252;2022-08-19T10:45:31;20.40;99.00
3186;DHT22;1604;53.700;10.252;2022-08-19T10:48:33;20.40;99.00
3186;DHT22;1604;53.700;10.252;2022-08-19T10:51:37;20.50;99.00
3186;DHT22;1604;53.700;10.252;2022-08-19T10:54:57;20.50;99.00
3186;DHT22;1604;53.700;10.252;2022-08-19T10:58:18;20.60;99.00
3186;DHT22;1604;53.700;10.252;2022-08-19T11:01:25;20.70;98.80
3186;DHT22;1604;53.700;10.252;2022-08-19T11:04:27;20.80;98.80
3186;DHT22;1604;53.700;10.252;2022-08-19T11:07:31;20.90;98.80
3186;DHT22;1604;53.700;10.252;2022-08-19T11:10:33;21.00;98.70
3186;DHT22;1604;53.700;10.252;2022-08-19T11:13:36;21.10;98.70
3186;DHT22;1604;53.700;10.252;2022-08-19T11:16:39;21.20;98.60
3186;DHT22;1604;53.700;10.252;2022-08-19T11:19:41;21.30;98.40
3186;DHT22;1604;53.700;10.252;2022-08-19T11:22:47;21.30;98.40
3186;DHT22;1604;53.700;10.252;2022-08-19T11:25:50;21.40;98.40
3186;DHT22;1604;53.700;10.252;2022-08-19T11:28:52;21.40;98.40
3186;DHT22;1604;53.700;10.252;2022-08-19T11:31:55;21.50;98.40
3186;DHT22;1604;53.700;10.252;2022-08-19T11:34:57;21.40;98.30
3186;DHT22;1604;53.700;10.252;2022-08-19T11:38:00;21.50;98.30
3186;DHT22;1604;53.700;10.252;2022-08-19T11:41:04;21.50;98.30
3186;DHT22;1604;53.700;10.252;2022-08-19T11:44:07;21.50;98.40
3186;DHT22;1604;53.700;10.252;2022-08-19T11:47:09;21.50;98.30
3186;DHT22;1604;53.700;10.252;2022-08-19T11:50:11;21.50;98.30
3186;DHT22;1604;53.700;10.252;2022-08-19T11:53:15;21.50;98.40
3186;DHT22;1604;53.700;10.252;2022-08-19T11:56:18;21.60;98.40
3186;DHT22;1604;53.700;10.252;2022-08-19T11:59:20;21.60;98.30
3186;DHT22;1604;53.700;10.252;2022-08-19T12:02:25;21.60;98.20
3186;DHT22;1604;53.700;10.252;2022-08-19T12:05:27;21.70;98.20
3186;DHT22;1604;53.700;10.252;2022-08-19T12:08:30;21.70;98.20
3186;DHT22;1604;53.700;10.252;2022-08-19T12:11:32;21.70;98.20
3186;DHT22;1604;53.700;10.252;2022-08-19T12:14:34;21.80;98.10
3186;DHT22;1604;53.700;10.252;2022-08-19T12:17:36;21.80;98.20
3186;DHT22;1604;53.700;10.252;2022-08-19T12:20:40;21.90;98.10
3186;DHT22;1604;53.700;10.252;2022-08-19T12:23:44;22.10;98.10
3186;DHT22;1604;53.700;10.252;2022-08-19T12:26:46;22.20;97.90
3186;DHT22;1604;53.700;10.252;2022-08-19T12:29:48;22.20;97.80
3186;DHT22;1604;53.700;10.252;2022-08-19T12:32:50;22.20;97.80
3186;DHT22;1604;53.700;10.252;2022-08-19T12:35:52;22.20;97.80
3186;DHT22;1604;53.700;10.252;2022-08-19T12:38:58;22.30;97.80
3186;DHT22;1604;53.700;10.252;2022-08-19T12:42:00;22.30;97.80
3186;DHT22;1604;53.700;10.252;2022-08-19T12:45:02;22.30;97.80
3186;DHT22;1604;53.700;10.252;2022-08-19T12:48:04;22.40;97.80
3186;DHT22;1604;53.700;10.252;2022-08-19T12:51:07;22.40;97.80
3186;DHT22;1604;53.700;10.252;2022-08-19T12:54:11;22.60;97.70
3186;DHT22;1604;53.700;10.252;2022-08-19T12:57:12;22.60;97.60
3186;DHT22;1604;53.700;10.252;2022-08-19T13:00:17;22.70;97.70
3186;DHT22;1604;53.700;10.252;2022-08-19T13:03:21;22.70;97.50
3186;DHT22;1604;53.700;10.252;2022-08-19T13:06:27;22.70;97.50
3186;DHT22;1604;53.700;10.252;2022-08-19T13:09:31;22.70;97.40
3186;DHT22;1604;53.700;10.252;2022-08-19T13:12:33;22.70;97.40
3186;DHT22;1604;53.700;10.252;2022-08-19T13:15:38;22.80;97.30
3186;DHT22;1604;53.700;10.252;2022-08-19T13:18:43;22.90;97.40
3186;DHT22;1604;53.700;10.252;2022-08-19T13:21:49;23.10;97.20
3186;DHT22;1604;53.700;10.252;2022-08-19T13:24:53;23.30;96.70
3186;DHT22;1604;53.700;10.252;2022-08-19T13:27:56;23.60;96.70
3186;DHT22;1604;53.700;10.252;2022-08-19T13:30:58;23.90;96.50
3186;DHT22;1604;53.700;10.252;2022-08-19T13:34:19;24.20;96.10
3186;DHT22;1604;53.700;10.252;2022-08-19T13:37:24;24.40;95.50
3186;DHT22;1604;53.700;10.252;2022-08-19T13:40:41;24.40;95.60
3186;DHT22;1604;53.700;10.252;2022-08-19T13:43:44;24.40;95.30
3186;DHT22;1604;53.700;10.252;2022-08-19T13:46:48;24.30;95.50
3186;DHT22;1604;53.700;10.252;2022-08-19T13:49:52;24.30;95.60
3186;DHT22;1604;53.700;10.252;2022-08-19T13:52:55;24.20;95.60
3186;DHT22;1604;53.700;10.252;2022-08-19T13:55:58;24.20;95.60
3186;DHT22;1604;53.700;10.252;2022-08-19T13:59:00;24.20;95.60
3186;DHT22;1604;53.700;10.252;2022-08-19T14:02:02;24.20;95.90
3186;DHT22;1604;53.700;10.252;2022-08-19T14:05:08;24.20;95.40
3186;DHT22;1604;53.700;10.252;2022-08-19T14:08:10;24.30;95.40
3186;DHT22;1604;53.700;10.252;2022-08-19T14:11:15;24.30;95.20
3186;DHT22;1604;53.700;10.252;2022-08-19T14:14:17;24.30;95.20
3186;DHT22;1604;53.700;10.252;2022-08-19T14:17:20;24.40;95.20
3186;DHT22;1604;53.700;10.252;2022-08-19T14:20:29;24.40;95.10
3186;DHT22;1604;53.700;10.252;2022-08-19T14:23:31;24.50;95.10
3186;DHT22;1604;53.700;10.252;2022-08-19T14:26:35;24.50;95.30
3186;DHT22;1604;53.700;10.252;2022-08-19T14:29:36;24.50;95.00
3186;DHT22;1604;53.700;10.252;2022-08-19T14:32:38;24.60;94.80
3186;DHT22;1604;53.700;10.252;2022-08-19T14:35:40;24.60;94.70
3186;DHT22;1604;53.700;10.252;2022-08-19T14:38:45;24.60;94.40
3186;DHT22;1604;53.700;10.252;2022-08-19T14:41:48;24.50;94.70
3186;DHT22;1604;53.700;10.252;2022-08-19T14:44:51;24.50;95.00
3186;DHT22;1604;53.700;10.252;2022-08-19T14:47:53;24.50;94.80
3186;DHT22;1604;53.700;10.252;2022-08-19T14:50:55;24.50;95.10
3186;DHT22;1604;53.700;10.252;2022-08-19T14:53:57;24.50;95.10
3186;DHT22;1604;53.700;10.252;2022-08-19T14:57:06;24.50;95.00
3186;DHT22;1604;53.700;10.252;2022-08-19T15:00:10;24.50;94.50
3186;DHT22;1604;53.700;10.252;2022-08-19T15:03:13;24.40;94.90
3186;DHT22;1604;53.700;10.252;2022-08-19T15:06:15;24.40;94.90
3186;DHT22;1604;53.700;10.252;2022-08-19T15:09:17;24.30;95.00
3186;DHT22;1604;53.700;10.252;2022-08-19T15:12:20;24.30;95.10
3186;DHT22;1604;53.700;10.252;2022-08-19T15:15:23;24.20;95.00
3186;DHT22;1604;53.700;10.252;2022-08-19T15:18:28;24.10;94.70
3186;DHT22;1604;53.700;10.252;2022-08-19T15:21:30;24.10;94.90
3186;DHT22;1604;53.700;10.252;2022-08-19T15:24:32;24.10;94.80
3186;DHT22;1604;53.700;10.252;2022-08-19T15:27:37;24.10;94.80
3186;DHT22;1604;53.700;10.252;2022-08-19T15:30:40;24.10;94.90
3186;DHT22;1604;53.700;10.252;2022-08-19T15:33:43;24.10;95.00
3186;DHT22;1604;53.700;10.252;2022-08-19T15:36:46;24.20;95.10
3186;DHT22;1604;53.700;10.252;2022-08-19T15:39:48;24.20;94.90
3186;DHT22;1604;53.700;10.252;2022-08-19T15:42:52;24.30;94.30
3186;DHT22;1604;53.700;10.252;2022-08-19T15:45:54;24.30;94.70
3186;DHT22;1604;53.700;10.252;2022-08-19T15:48:57;24.30;94.80
3186;DHT22;1604;53.700;10.252;2022-08-19T15:51:59;24.30;95.00
3186;DHT22;1604;53.700;10.252;2022-08-19T15:55:03;24.30;95.00
3186;DHT22;1604;53.700;10.252;2022-08-19T15:58:09;24.40;94.80
3186;DHT22;1604;53.700;10.252;2022-08-19T16:01:30;24.30;94.80
3186;DHT22;1604;53.700;10.252;2022-08-19T16:04:50;24.40;94.90
3186;DHT22;1604;53.700;10.252;2022-08-19T16:08:10;24.30;94.70
3186;DHT22;1604;53.700;10.252;2022-08-19T16:11:12;24.30;94.80
3186;DHT22;1604;53.700;10.252;2022-08-19T16:14:17;24.30;94.70
3186;DHT22;1604;53.700;10.252;2022-08-19T16:17:19;24.20;94.70
3186;DHT22;1604;53.700;10.252;2022-08-19T16:20:21;24.20;95.00
3186;DHT22;1604;53.700;10.252;2022-08-19T16:23:24;24.20;95.10
3186;DHT22;1604;53.700;10.252;2022-08-19T16:26:26;24.10;95.20
3186;DHT22;1604;53.700;10.252;2022-08-19T16:29:31;24.10;95.30
3186;DHT22;1604;53.700;10.252;2022-08-19T16:32:35;24.00;95.40
3186;DHT22;1604;53.700;10.252;2022-08-19T16:35:37;24.00;95.50
3186;DHT22;1604;53.700;10.252;2022-08-19T16:38:39;23.90;95.60
3186;DHT22;1604;53.700;10.252;2022-08-19T16:41:43;23.90;95.50
3186;DHT22;1604;53.700;10.252;2022-08-19T16:44:46;23.80;95.40
3186;DHT22;1604;53.700;10.252;2022-08-19T16:47:48;23.80;95.50
3186;DHT22;1604;53.700;10.252;2022-08-19T16:50:50;23.70;95.60
3186;DHT22;1604;53.700;10.252;2022-08-19T16:53:52;23.70;95.80
3186;DHT22;1604;53.700;10.252;2022-08-19T16:56:54;23.60;95.80
3186;DHT22;1604;53.700;10.252;2022-08-19T16:59:57;23.50;95.90
3186;DHT22;1604;53.700;10.252;2022-08-19T17:03:05;23.40;95.90
3186;DHT22;1604;53.700;10.252;2022-08-19T17:06:12;23.40;96.10
3186;DHT22;1604;53.700;10.252;2022-08-19T17:09:14;23.30;96.10
3186;DHT22;1604;53.700;10.252;2022-08-19T17:12:18;23.20;96.20
3186;DHT22;1604;53.700;10.252;2022-08-19T17:15:21;23.20;96.30
3186;DHT22;1604;53.700;10.252;2022-08-19T17:18:23;23.10;96.30
3186;DHT22;1604;53.700;10.252;2022-08-19T17:21:32;23.00;96.40
3186;DHT22;1604;53.700;10.252;2022-08-19T17:24:34;23.00;96.40
3186;DHT22;1604;53.700;10.252;2022-08-19T17:27:36;22.90;96.40
3186;DHT22;1604;53.700;10.252;2022-08-19T17:30:40;22.80;96.50
3186;DHT22;1604;53.700;10.252;2022-08-19T17:33:42;22.80;96.60
3186;DHT22;1604;53.700;10.252;2022-08-19T17:36:47;22.70;96.70
3186;DHT22;1604;53.700;10.252;2022-08-19T17:39:50;22.70;96.80
3186;DHT22;1604;53.700;10.252;2022-08-19T17:42:53;22.70;96.90
3186;DHT22;1604;53.700;10.252;2022-08-19T17:45:56;22.60;97.00
3186;DHT22;1604;53.700;10.252;2022-08-19T17:48:59;22.50;96.90
3186;DHT22;1604;53.700;10.252;2022-08-19T17:52:01;22.50;96.90
3186;DHT22;1604;53.700;10.252;2022-08-19T17:55:04;22.40;97.00
3186;DHT22;1604;53.700;10.252;2022-08-19T17:58:06;22.40;97.10
3186;DHT22;1604;53.700;10.252;2022-08-19T18:01:12;22.30;97.10
3186;DHT22;1604;53.700;10.252;2022-08-19T18:04:15;22.30;97.30
3186;DHT22;1604;53.700;10.252;2022-08-19T18:07:18;22.20;97.30
3186;DHT22;1604;53.700;10.252;2022-08-19T18:10:22;22.20;97.30
3186;DHT22;1604;53.700;10.252;2022-08-19T18:13:25;22.10;97.40
3186;DHT22;1604;53.700;10.252;2022-08-19T18:16:28;22.10;97.60
3186;DHT22;1604;53.700;10.252;2022-08-19T18:19:32;22.00;97.60
3186;DHT22;1604;53.700;10.252;2022-08-19T18:22:36;21.90;97.60
3186;DHT22;1604;53.700;10.252;2022-08-19T18:25:39;21.90;97.70
3186;DHT22;1604;53.700;10.252;2022-08-19T18:28:40;21.80;97.70
3186;DHT22;1604;53.700;10.252;2022-08-19T18:31:44;21.80;97.80
3186;DHT22;1604;53.700;10.252;2022-08-19T18:34:47;21.70;97.90
3186;DHT22;1604;53.700;10.252;2022-08-19T18:37:49;21.60;97.90
3186;DHT22;1604;53.700;10.252;2022-08-19T18:40:51;21.60;98.10
3186;DHT22;1604;53.700;10.252;2022-08-19T18:44:10;21.50;98.10
3186;DHT22;1604;53.700;10.252;2022-08-19T18:47:31;21.40;98.20
3186;DHT22;1604;53.700;10.252;2022-08-19T18:50:50;21.30;98.30
3186;DHT22;1604;53.700;10.252;2022-08-19T18:53:52;21.20;98.30
3186;DHT22;1604;53.700;10.252;2022-08-19T18:56:58;21.20;98.40
3186;DHT22;1604;53.700;10.252;2022-08-19T19:00:00;21.00;98.50
3186;DHT22;1604;53.700;10.252;2022-08-19T19:03:08;21.00;98.60
3186;DHT22;1604;53.700;10.252;2022-08-19T19:06:11;20.90;98.60
3186;DHT22;1604;53.700;10.252;2022-08-19T19:09:16;20.80;98.70
3186;DHT22;1604;53.700;10.252;2022-08-19T19:12:19;20.70;98.70
3186;DHT22;1604;53.700;10.252;2022-08-19T19:15:25;20.70;98.70
3186;DHT22;1604;53.700;10.252;2022-08-19T19:18:37;20.60;98.90
3186;DHT22;1604;53.700;10.252;2022-08-19T19:21:41;20.50;98.90
3186;DHT22;1604;53.700;10.252;2022-08-19T19:24:47;20.50;98.90
3186;DHT22;1604;53.700;10.252;2022-08-19T19:27:50;20.40;99.00
3186;DHT22;1604;53.700;10.252;2022-08-19T19:30:55;20.30;99.00
3186;DHT22;1604;53.700;10.252;2022-08-19T19:33:59;20.30;99.00
3186;DHT22;1604;53.700;10.252;2022-08-19T19:37:01;20.20;99.20
3186;DHT22;1604;53.700;10.252;2022-08-19T19:40:03;20.10;99.30